createdAt,value
2022-12-15T00:01:58.795Z,-6.67
2022-12-15T00:04:43.999Z,-6.62
2022-12-15T00:07:29.131Z,-6.57
2022-12-15T00:10:14.322Z,-6.63
2022-12-15T00:12:59.308Z,-6.63
2022-12-15T00:15:44.611Z,-6.50
2022-12-15T00:18:29.507Z,-6.71
2022-12-15T00:21:18.617Z,-7.19
2022-12-15T00:24:03.803Z,-7.17
2022-12-15T00:26:48.945Z,-6.59
2022-12-15T00:29:34.227Z,-6.52
2022-12-15T00:32:19.357Z,-7.14
2022-12-15T00:35:04.083Z,-6.61
2022-12-15T00:37:49.273Z,-6.67
2022-12-15T00:40:15.850Z,-7.37
2022-12-15T00:42:42.389Z,-6.68
2022-12-15T00:45:09.307Z,-6.54
2022-12-15T00:47:36.349Z,-6.53
2022-12-15T00:50:23.885Z,-6.60
2022-12-15T00:53:09.026Z,-6.54
2022-12-15T00:55:53.962Z,-6.59
2022-12-15T00:58:39.047Z,-6.56
2022-12-15T01:01:25.939Z,-6.50
2022-12-15T01:04:11.177Z,-6.54
2022-12-15T01:06:56.377Z,-6.72
2022-12-15T01:09:41.949Z,-6.67
2022-12-15T01:12:27.171Z,-7.28
2022-12-15T01:15:11.990Z,-6.90
2022-12-15T01:17:57.192Z,-6.74
2022-12-15T01:20:23.737Z,-6.65
2022-12-15T01:22:53.054Z,-6.69
2022-12-15T01:25:21.921Z,-7.31
2022-12-15T01:27:48.928Z,-6.71
2022-12-15T01:30:18.084Z,-7.28
2022-12-15T01:32:46.403Z,-6.72
2022-12-15T01:35:13.156Z,-7.72
2022-12-15T01:37:39.672Z,-7.22
2022-12-15T01:40:26.226Z,-6.68
2022-12-15T01:42:53.182Z,-6.93
2022-12-15T01:45:28.669Z,-6.59
2022-12-15T01:47:59.240Z,-6.65
2022-12-15T01:50:26.770Z,-6.69
2022-12-15T01:52:55.080Z,-6.77
2022-12-15T01:55:24.468Z,-6.75
2022-12-15T01:57:54.632Z,-6.70
2022-12-15T02:00:21.197Z,-6.67
2022-12-15T02:02:48.095Z,-6.70
2022-12-15T02:05:14.781Z,-6.78
2022-12-15T02:07:42.699Z,-6.66
2022-12-15T02:10:11.155Z,-7.25
2022-12-15T02:12:40.612Z,-6.65
2022-12-15T02:15:32.160Z,-6.71
2022-12-15T02:18:29.701Z,-6.72
2022-12-15T02:21:02.703Z,-6.86
2022-12-15T02:23:49.044Z,-6.68
2022-12-15T02:26:43.211Z,-6.69
2022-12-15T02:29:37.775Z,-6.73
2022-12-15T02:32:16.494Z,-7.43
2022-12-15T02:34:58.417Z,-6.89
2022-12-15T02:37:32.946Z,-6.78
2022-12-15T02:39:59.796Z,-6.76
2022-12-15T02:42:29.897Z,-6.77
2022-12-15T02:44:58.730Z,-6.82
2022-12-15T02:47:45.961Z,-6.79
2022-12-15T02:50:43.488Z,-6.83
2022-12-15T02:53:47.655Z,-6.88
2022-12-15T02:56:43.411Z,-7.02
2022-12-15T02:59:36.650Z,-7.43
2022-12-15T03:02:06.478Z,-7.63
2022-12-15T03:04:33.886Z,-7.03
2022-12-15T03:07:08.170Z,-6.97
2022-12-15T03:09:34.680Z,-7.16
2022-12-15T03:12:01.558Z,-6.94
2022-12-15T03:14:28.170Z,-7.52
2022-12-15T03:16:54.902Z,-6.91
2022-12-15T03:19:21.520Z,-6.98
2022-12-15T03:21:48.018Z,-7.58
2022-12-15T03:24:14.574Z,-6.90
2022-12-15T03:26:41.697Z,-7.68
2022-12-15T03:29:08.294Z,-6.96
2022-12-15T03:31:35.065Z,-6.86
2022-12-15T03:34:02.054Z,-6.80
2022-12-15T03:36:28.608Z,-6.80
2022-12-15T03:38:55.099Z,-7.01
2022-12-15T03:41:21.606Z,-7.05
2022-12-15T03:43:49.841Z,-6.94
2022-12-15T03:46:16.818Z,-6.94
2022-12-15T03:48:43.639Z,-6.98
2022-12-15T03:51:10.462Z,-6.99
2022-12-15T03:53:36.933Z,-7.03
2022-12-15T03:56:03.489Z,-6.98
2022-12-15T03:58:30.288Z,-7.66
2022-12-15T04:00:57.000Z,-7.25
2022-12-15T04:03:23.674Z,-7.07
2022-12-15T04:05:51.257Z,-7.11
2022-12-15T04:08:17.719Z,-7.23
2022-12-15T04:10:44.263Z,-7.04
2022-12-15T04:13:12.037Z,-7.02
2022-12-15T04:15:40.439Z,-7.05
2022-12-15T04:18:10.622Z,-6.99
2022-12-15T04:20:39.058Z,-7.08
2022-12-15T04:23:07.819Z,-7.58
2022-12-15T04:25:54.298Z,-6.92
2022-12-15T04:28:39.492Z,-7.53
2022-12-15T04:31:30.760Z,-7.53
2022-12-15T04:34:25.174Z,-7.67
2022-12-15T04:37:12.392Z,-7.14
2022-12-15T04:40:02.338Z,-6.96
2022-12-15T04:42:49.225Z,-7.07
2022-12-15T04:45:37.307Z,-7.07
2022-12-15T04:48:23.301Z,-6.99
2022-12-15T04:51:08.089Z,-7.75
2022-12-15T04:53:53.101Z,-7.19
2022-12-15T04:56:38.263Z,-7.10
2022-12-15T04:59:23.525Z,-7.04
2022-12-15T05:02:08.878Z,-7.15
2022-12-15T05:04:54.346Z,-7.80
2022-12-15T05:07:39.319Z,-7.25
2022-12-15T05:10:25.005Z,-7.57
2022-12-15T05:13:09.866Z,-7.26
2022-12-15T05:15:55.197Z,-7.14
2022-12-15T05:18:40.323Z,-7.18
2022-12-15T05:21:25.475Z,-7.12
2022-12-15T05:24:10.948Z,-7.80
2022-12-15T05:26:56.647Z,-7.15
2022-12-15T05:29:41.668Z,-7.15
2022-12-15T05:32:08.423Z,-7.14
2022-12-15T05:34:36.286Z,-7.10
2022-12-15T05:37:04.854Z,-7.12
2022-12-15T05:39:31.471Z,-7.15
2022-12-15T05:41:57.942Z,-7.16
2022-12-15T05:44:25.552Z,-7.09
2022-12-15T05:46:52.647Z,-7.60
2022-12-15T05:49:19.303Z,-7.98
2022-12-15T05:51:47.634Z,-7.17
2022-12-15T05:54:17.352Z,-7.85
2022-12-15T05:56:44.980Z,-7.29
2022-12-15T05:59:11.566Z,-7.28
2022-12-15T06:01:38.277Z,-7.39
2022-12-15T06:04:05.235Z,-7.99
2022-12-15T06:06:32.434Z,-7.31
2022-12-15T06:08:58.947Z,-7.20
2022-12-15T06:11:25.444Z,-7.20
2022-12-15T06:13:52.998Z,-7.24
2022-12-15T06:16:21.101Z,-7.36
2022-12-15T06:18:50.499Z,-7.58
2022-12-15T06:21:19.986Z,-7.29
2022-12-15T06:23:47.914Z,-7.19
2022-12-15T06:26:20.542Z,-7.05
2022-12-15T06:28:48.156Z,-7.33
2022-12-15T06:31:16.216Z,-7.14
2022-12-15T06:33:42.700Z,-7.36
2022-12-15T06:36:15.232Z,-7.12
2022-12-15T06:38:43.540Z,-7.02
2022-12-15T06:41:12.765Z,-6.99
2022-12-15T06:43:39.747Z,-7.05
2022-12-15T06:46:06.822Z,-7.62
2022-12-15T06:48:33.368Z,-6.93
2022-12-15T06:51:05.220Z,-6.86
2022-12-15T06:53:32.583Z,-6.98
2022-12-15T06:56:01.712Z,-6.95
2022-12-15T06:58:28.250Z,-6.88
2022-12-15T07:00:56.233Z,-7.17
2022-12-15T07:03:22.939Z,-7.06
2022-12-15T07:06:01.369Z,-7.75
2022-12-15T07:08:32.174Z,-7.70
2022-12-15T07:11:03.452Z,-7.57
2022-12-15T07:13:30.917Z,-6.90
2022-12-15T07:16:06.158Z,-6.98
2022-12-15T07:18:32.665Z,-7.04
2022-12-15T07:21:07.423Z,-7.14
2022-12-15T07:23:53.358Z,-6.99
2022-12-15T07:26:20.979Z,-7.64
2022-12-15T07:28:47.606Z,-6.96
2022-12-15T07:31:15.441Z,-7.13
2022-12-15T07:33:42.716Z,-7.54
2022-12-15T07:36:10.990Z,-6.79
2022-12-15T07:38:38.122Z,-6.77
2022-12-15T07:41:06.945Z,-6.75
2022-12-15T07:43:34.374Z,-6.88
2022-12-15T07:46:03.390Z,-7.45
2022-12-15T07:48:30.302Z,-6.73
2022-12-15T07:51:08.310Z,-6.65
2022-12-15T07:53:38.191Z,-6.63
2022-12-15T07:56:08.924Z,-6.65
2022-12-15T07:58:37.111Z,-6.63
2022-12-15T08:01:07.048Z,-6.66
2022-12-15T08:03:34.656Z,-6.49
2022-12-15T08:06:05.459Z,-6.65
2022-12-15T08:08:32.927Z,-6.52
2022-12-15T08:11:03.747Z,-6.43
2022-12-15T08:14:01.215Z,-6.27
2022-12-15T08:16:17.057Z,-6.22
2022-12-15T08:18:43.661Z,-6.21
2022-12-15T08:21:11.669Z,-6.27
2022-12-15T08:23:40.183Z,-6.39
2022-12-15T08:26:09.735Z,-6.22
2022-12-15T08:28:38.070Z,-6.06
2022-12-15T08:31:09.847Z,-6.05
2022-12-15T08:33:36.813Z,-5.70
2022-12-15T08:36:06.632Z,-6.38
2022-12-15T08:38:34.727Z,-5.46
2022-12-15T08:41:13.564Z,-5.46
2022-12-15T08:43:47.451Z,-5.12
2022-12-15T08:46:24.817Z,-5.06
2022-12-15T08:48:52.850Z,-5.45
2022-12-15T08:51:21.211Z,-4.87
2022-12-15T08:53:48.818Z,-5.48
2022-12-15T08:56:19.037Z,-5.05
2022-12-15T08:58:47.112Z,-4.65
2022-12-15T09:01:23.403Z,-4.28
2022-12-15T09:03:53.665Z,-5.00
2022-12-15T09:06:34.982Z,-4.56
2022-12-15T09:09:04.837Z,-4.00
2022-12-15T09:11:31.438Z,-3.71
2022-12-15T09:13:58.476Z,-3.41
2022-12-15T09:16:25.636Z,-3.31
2022-12-15T09:18:55.834Z,-3.09
2022-12-15T09:21:25.959Z,-2.49
2022-12-15T09:23:55.247Z,-2.62
2022-12-15T09:26:23.121Z,-2.01
2022-12-15T09:28:50.925Z,-0.90
2022-12-15T09:31:21.682Z,-0.12
2022-12-15T09:33:49.965Z,0.51
2022-12-15T09:36:16.854Z,1.07
2022-12-15T09:38:44.050Z,1.54
2022-12-15T09:41:13.275Z,1.72
2022-12-15T09:43:50.476Z,1.54
2022-12-15T09:46:27.675Z,1.29
2022-12-15T09:48:58.161Z,1.27
2022-12-15T09:51:39.302Z,1.40
2022-12-15T09:54:06.775Z,1.65
2022-12-15T09:56:44.322Z,2.17
2022-12-15T09:59:37.926Z,2.32
2022-12-15T10:02:25.599Z,3.01
2022-12-15T10:05:10.166Z,3.20
2022-12-15T10:07:46.577Z,3.49
2022-12-15T10:10:38.836Z,3.79
2022-12-15T10:13:24.930Z,3.76
2022-12-15T10:15:58.738Z,5.08
2022-12-15T10:18:34.953Z,5.53
2022-12-15T10:21:02.305Z,5.36
2022-12-15T10:23:30.526Z,5.64
2022-12-15T10:26:21.245Z,5.86
2022-12-15T10:29:16.733Z,6.44
2022-12-15T10:31:49.428Z,7.26
2022-12-15T10:34:24.026Z,7.16
2022-12-15T10:36:52.375Z,7.14
2022-12-15T10:39:20.913Z,7.11
2022-12-15T10:42:15.148Z,7.33
2022-12-15T10:44:44.963Z,7.43
2022-12-15T10:47:29.570Z,7.34
2022-12-15T10:50:20.976Z,6.57
2022-12-15T10:52:50.992Z,6.69
2022-12-15T10:55:37.125Z,7.62
2022-12-15T10:58:15.849Z,7.97
2022-12-15T11:00:42.386Z,8.19
2022-12-15T11:03:22.640Z,8.46
2022-12-15T11:05:55.131Z,8.51
2022-12-15T11:08:22.850Z,8.53
2022-12-15T11:11:11.043Z,8.41
2022-12-15T11:13:38.557Z,8.17
2022-12-15T11:16:16.561Z,8.34
2022-12-15T11:19:11.790Z,8.85
2022-12-15T11:21:53.123Z,8.76
2022-12-15T11:24:28.581Z,8.55
2022-12-15T11:27:01.888Z,8.20
2022-12-15T11:29:34.442Z,8.47
2022-12-15T11:32:06.679Z,8.01
2022-12-15T11:34:38.257Z,8.40
2022-12-15T11:37:18.075Z,8.88
2022-12-15T11:40:18.817Z,8.95
2022-12-15T11:43:00.586Z,8.80
2022-12-15T11:45:41.913Z,8.98
2022-12-15T11:48:17.591Z,9.24
2022-12-15T11:51:02.601Z,9.48
2022-12-15T11:54:06.563Z,9.82
2022-12-15T11:56:43.716Z,10.29
2022-12-15T11:59:34.749Z,9.97
2022-12-15T12:02:11.512Z,10.04
2022-12-15T12:05:03.713Z,9.32
2022-12-15T12:07:45.241Z,8.14
2022-12-15T12:10:27.337Z,6.87
2022-12-15T12:13:28.471Z,5.28
2022-12-15T12:16:10.751Z,4.45
2022-12-15T12:18:50.438Z,4.31
2022-12-15T12:21:25.469Z,3.82
2022-12-15T12:24:10.249Z,3.68
2022-12-15T12:26:46.082Z,3.05
2022-12-15T12:29:25.392Z,2.52
2022-12-15T12:32:02.192Z,2.33
2022-12-15T12:34:52.583Z,2.10
2022-12-15T12:37:49.650Z,1.99
2022-12-15T12:40:24.826Z,2.64
2022-12-15T12:42:58.769Z,3.51
2022-12-15T12:45:47.162Z,5.87
2022-12-15T12:48:27.795Z,7.51
2022-12-15T12:51:16.626Z,8.55
2022-12-15T12:53:43.136Z,8.09
2022-12-15T12:56:31.468Z,7.72
2022-12-15T12:58:58.124Z,6.67
2022-12-15T13:01:30.933Z,7.86
2022-12-15T13:04:12.797Z,7.92
2022-12-15T13:06:39.204Z,7.37
2022-12-15T13:09:17.934Z,6.72
2022-12-15T13:11:55.731Z,6.14
2022-12-15T13:14:40.591Z,7.34
2022-12-15T13:17:26.635Z,8.03
2022-12-15T13:19:56.600Z,8.12
2022-12-15T13:22:36.325Z,7.87
2022-12-15T13:25:39.084Z,7.97
2022-12-15T13:28:34.760Z,8.01
2022-12-15T13:31:16.728Z,6.92
2022-12-15T13:33:49.554Z,5.57
2022-12-15T13:36:34.697Z,4.52
2022-12-15T13:39:01.185Z,3.77
2022-12-15T13:41:27.671Z,3.50
2022-12-15T13:43:55.180Z,3.49
2022-12-15T13:46:29.434Z,3.41
2022-12-15T13:49:14.050Z,3.28
2022-12-15T13:51:45.802Z,2.55
2022-12-15T13:54:25.891Z,2.85
2022-12-15T13:57:05.200Z,2.82
2022-12-15T13:59:37.926Z,2.73
2022-12-15T14:02:23.331Z,2.59
2022-12-15T14:05:09.988Z,2.34
2022-12-15T14:07:36.539Z,2.02
2022-12-15T14:10:07.384Z,1.87
2022-12-15T14:12:33.967Z,1.50
2022-12-15T14:15:01.305Z,1.41
2022-12-15T14:17:32.665Z,1.47
2022-12-15T14:20:11.504Z,1.34
2022-12-15T14:22:43.016Z,0.55
2022-12-15T14:25:21.950Z,1.08
2022-12-15T14:27:50.854Z,0.99
2022-12-15T14:30:29.345Z,0.94
2022-12-15T14:33:12.513Z,0.90
2022-12-15T14:38:45.269Z,0.54
2022-12-15T14:41:23.171Z,-0.12
2022-12-15T14:46:38.898Z,-0.16
2022-12-15T14:49:08.765Z,0.39
2022-12-15T14:51:46.215Z,0.24
2022-12-15T14:54:38.433Z,0.23
2022-12-15T14:57:20.026Z,0.10
2022-12-15T14:59:48.512Z,-0.73
2022-12-15T15:02:26.612Z,-0.15
2022-12-15T15:03:14.381Z,0.33
2022-12-15T15:05:05.476Z,-0.29
2022-12-15T15:07:32.992Z,-0.42
2022-12-15T15:10:01.341Z,-0.68
2022-12-15T15:12:46.044Z,-0.80
2022-12-15T15:15:18.565Z,-0.90
2022-12-15T15:17:58.409Z,-0.89
2022-12-15T15:20:27.998Z,-0.90
2022-12-15T15:23:16.648Z,-1.00
2022-12-15T15:25:54.898Z,-1.51
2022-12-15T15:28:27.597Z,-1.04
2022-12-15T15:30:57.555Z,-1.05
2022-12-15T15:33:25.253Z,-1.33
2022-12-15T15:35:55.039Z,-1.12
2022-12-15T15:38:37.900Z,-1.04
2022-12-15T15:41:20.594Z,-1.13
2022-12-15T15:43:47.696Z,-1.46
2022-12-15T15:46:16.630Z,-2.09
2022-12-15T15:48:46.548Z,-2.38
2022-12-15T15:51:14.163Z,-2.30
2022-12-15T15:53:41.153Z,-2.60
2022-12-15T15:56:12.263Z,-2.80
2022-12-15T15:58:38.813Z,-2.33
2022-12-15T16:01:11.183Z,-2.57
2022-12-15T16:03:39.662Z,-2.30
2022-12-15T16:06:13.996Z,-2.39
2022-12-15T16:08:40.594Z,-2.41
2022-12-15T16:11:11.130Z,-2.82
2022-12-15T16:13:39.030Z,-3.11
2022-12-15T16:16:06.479Z,-3.43
2022-12-15T16:18:33.413Z,-2.74
2022-12-15T16:21:00.245Z,-2.74
2022-12-15T16:23:28.403Z,-2.90
2022-12-15T16:26:00.212Z,-3.31
2022-12-15T16:28:30.367Z,-2.69
2022-12-15T16:30:58.769Z,-3.35
2022-12-15T16:33:25.677Z,-3.45
2022-12-15T16:35:53.315Z,-3.28
2022-12-15T16:38:24.308Z,-2.79
2022-12-15T16:40:51.651Z,-3.12
2022-12-15T16:43:22.286Z,-2.83
2022-12-15T16:45:51.169Z,-2.93
2022-12-15T16:48:18.412Z,-2.91
2022-12-15T16:50:51.949Z,-2.97
2022-12-15T16:53:37.577Z,-3.02
2022-12-15T16:56:06.462Z,-3.49
2022-12-15T16:58:35.974Z,-3.20
2022-12-15T17:01:03.887Z,-3.43
2022-12-15T17:03:30.993Z,-3.79
2022-12-15T17:06:00.988Z,-3.86
2022-12-15T17:08:38.498Z,-3.35
2022-12-15T17:11:05.252Z,-3.41
2022-12-15T17:13:39.083Z,-3.36
2022-12-15T17:16:06.518Z,-3.41
2022-12-15T17:18:34.069Z,-3.52
2022-12-15T17:21:06.812Z,-3.92
2022-12-15T17:23:35.069Z,-3.45
2022-12-15T17:26:22.527Z,-3.56
2022-12-15T17:28:48.962Z,-3.55
2022-12-15T17:31:21.332Z,-4.04
2022-12-15T17:33:48.865Z,-4.07
2022-12-15T17:36:19.947Z,-3.99
2022-12-15T17:38:48.555Z,-3.76
2022-12-15T17:41:35.161Z,-3.67
2022-12-15T17:44:31.503Z,-3.59
2022-12-15T17:46:49.576Z,-3.56
2022-12-15T17:49:16.309Z,-4.20
2022-12-15T17:51:44.331Z,-3.77
2022-12-15T17:54:16.343Z,-3.73
2022-12-15T17:56:45.635Z,-3.56
2022-12-15T17:59:17.889Z,-3.44
2022-12-15T18:01:44.475Z,-3.37
2022-12-15T18:04:11.668Z,-3.39
2022-12-15T18:06:43.411Z,-3.35
2022-12-15T18:09:16.067Z,-3.47
2022-12-15T18:11:45.144Z,-3.34
2022-12-15T18:14:21.041Z,-3.37
2022-12-15T18:16:47.583Z,-4.13
2022-12-15T18:19:14.962Z,-3.18
2022-12-15T18:21:41.663Z,-3.56
2022-12-15T18:24:17.421Z,-3.18
2022-12-15T18:26:44.990Z,-3.79
2022-12-15T18:29:14.106Z,-3.98
2022-12-15T18:31:41.742Z,-3.33
2022-12-15T18:34:19.257Z,-3.91
2022-12-15T18:36:46.861Z,-3.59
2022-12-15T18:39:24.004Z,-3.52
2022-12-15T18:41:51.582Z,-3.92
2022-12-15T18:44:26.921Z,-4.08
2022-12-15T18:46:55.377Z,-4.30
2022-12-15T18:49:23.166Z,-3.66
2022-12-15T18:51:50.252Z,-3.66
2022-12-15T18:54:20.066Z,-4.18
2022-12-15T18:56:46.976Z,-3.96
2022-12-15T18:59:17.446Z,-4.27
2022-12-15T19:01:48.929Z,-4.31
2022-12-15T19:04:16.008Z,-3.75
2022-12-15T19:06:44.288Z,-3.72
2022-12-15T19:09:19.289Z,-3.90
2022-12-15T19:12:08.936Z,-3.81
2022-12-15T19:14:45.039Z,-3.85
2022-12-15T19:17:35.994Z,-3.72
2022-12-15T19:20:23.185Z,-4.41
2022-12-15T19:22:50.243Z,-3.92
2022-12-15T19:25:25.928Z,-3.96
2022-12-15T19:27:58.757Z,-4.07
2022-12-15T19:30:31.031Z,-3.87
2022-12-15T19:32:57.828Z,-3.89
2022-12-15T19:35:27.201Z,-3.87
2022-12-15T19:37:57.119Z,-4.16
2022-12-15T19:40:30.336Z,-4.07
2022-12-15T19:42:58.213Z,-4.27
2022-12-15T19:45:30.744Z,-4.10
2022-12-15T19:47:57.512Z,-4.23
2022-12-15T19:50:27.886Z,-4.13
2022-12-15T19:53:03.646Z,-4.11
2022-12-15T19:55:33.112Z,-4.37
2022-12-15T19:58:00.797Z,-4.37
2022-12-15T20:00:27.469Z,-4.71
2022-12-15T20:02:55.145Z,-4.49
2022-12-15T20:05:24.682Z,-4.75
2022-12-15T20:07:54.854Z,-4.48
2022-12-15T20:10:31.977Z,-4.35
2022-12-15T20:13:00.487Z,-4.63
2022-12-15T20:15:27.545Z,-4.68
2022-12-15T20:17:57.662Z,-4.73
2022-12-15T20:20:27.799Z,-4.81
2022-12-15T20:22:57.478Z,-4.76
2022-12-15T20:25:27.852Z,-4.98
2022-12-15T20:27:54.562Z,-5.06
2022-12-15T20:30:26.809Z,-4.86
2022-12-15T20:32:53.620Z,-5.17
2022-12-15T20:35:22.008Z,-5.09
2022-12-15T20:37:49.839Z,-4.92
2022-12-15T20:40:24.869Z,-5.53
2022-12-15T20:42:52.758Z,-5.03
2022-12-15T20:45:22.178Z,-5.29
2022-12-15T20:47:50.904Z,-5.69
2022-12-15T20:50:27.317Z,-5.69
2022-12-15T20:52:55.066Z,-5.12
2022-12-15T20:55:21.878Z,-5.41
2022-12-15T20:57:48.724Z,-5.98
2022-12-15T21:00:17.846Z,-5.79
2022-12-15T21:02:45.753Z,-5.86
2022-12-15T21:05:24.098Z,-5.33
2022-12-15T21:07:51.542Z,-5.22
2022-12-15T21:10:19.819Z,-5.95
2022-12-15T21:12:50.401Z,-5.24
2022-12-15T21:15:22.575Z,-5.91
2022-12-15T21:18:08.840Z,-5.47
2022-12-15T21:20:41.316Z,-5.97
2022-12-15T21:23:27.314Z,-5.59
2022-12-15T21:25:55.631Z,-5.45
2022-12-15T21:28:22.801Z,-5.22
2022-12-15T21:30:49.675Z,-5.37
2022-12-15T21:33:17.206Z,-6.33
2022-12-15T21:35:46.547Z,-5.25
2022-12-15T21:38:33.558Z,-5.92
2022-12-15T21:41:02.899Z,-5.26
2022-12-15T21:43:33.288Z,-5.12
2022-12-15T21:46:01.796Z,-5.34
2022-12-15T21:48:47.087Z,-5.37
2022-12-15T21:51:16.863Z,-5.31
2022-12-15T21:53:45.326Z,-5.64
2022-12-15T21:56:20.096Z,-5.05
2022-12-15T21:58:52.597Z,-5.28
2022-12-15T22:01:24.482Z,-5.31
2022-12-15T22:03:54.616Z,-5.04
2022-12-15T22:06:26.365Z,-5.65
2022-12-15T22:08:54.680Z,-5.12
2022-12-15T22:11:27.206Z,-5.23
2022-12-15T22:13:56.794Z,-5.59
2022-12-15T22:16:23.840Z,-5.33
2022-12-15T22:18:54.941Z,-5.71
2022-12-15T22:21:23.373Z,-5.27
2022-12-15T22:23:50.805Z,-5.42
2022-12-15T22:26:39.642Z,-5.24
2022-12-15T22:29:25.197Z,-5.20
2022-12-15T22:31:52.025Z,-5.31
2022-12-15T22:34:23.641Z,-5.17
2022-12-15T22:36:50.627Z,-5.10
2022-12-15T22:39:19.079Z,-5.05
2022-12-15T22:41:50.133Z,-5.55
2022-12-15T22:44:22.132Z,-4.82
2022-12-15T22:46:50.109Z,-5.02
2022-12-15T22:49:29.045Z,-5.51
2022-12-15T22:51:55.581Z,-4.92
2022-12-15T22:54:27.527Z,-5.41
2022-12-15T22:56:59.182Z,-4.93
2022-12-15T22:59:31.811Z,-5.40
2022-12-15T23:01:59.954Z,-4.63
2022-12-15T23:04:27.658Z,-4.25
2022-12-15T23:06:54.203Z,-4.11
2022-12-15T23:09:21.584Z,-3.92
2022-12-15T23:11:48.292Z,-3.79
2022-12-15T23:14:16.967Z,-3.59
2022-12-15T23:16:45.493Z,-4.06
2022-12-15T23:19:23.850Z,-3.39
2022-12-15T23:21:51.741Z,-3.96
2022-12-15T23:24:18.609Z,-3.53
2022-12-15T23:26:45.181Z,-3.64
2022-12-15T23:29:11.693Z,-3.17
2022-12-15T23:31:38.318Z,-3.44
2022-12-15T23:34:05.053Z,-2.82
2022-12-15T23:36:31.522Z,-2.90
2022-12-15T23:38:58.189Z,-3.12
2022-12-15T23:41:24.994Z,-2.49
2022-12-15T23:43:51.543Z,-2.34
2022-12-15T23:46:18.682Z,-2.44
2022-12-15T23:48:45.504Z,-2.31
2022-12-15T23:51:17.759Z,-2.19
2022-12-15T23:53:45.870Z,-2.24
2022-12-15T23:56:18.616Z,-2.45
2022-12-15T23:58:46.333Z,-1.97
